Jesup Wayne County Airport


Codes: KJES/
Name: Jesup Wayne County Airport
City: Jesup
Country: United States
Elevation: 107 ft.

Photos at Jesup Wayne County Airport


   Photos courtesy of SpottingLog. You can add your own sightings and photos by signing up for a free trial today.



No photos found.

Weather at Jesup Wayne County Airport


Time (UTC)DescriptionTempratureWindCloud coverageVisibilityPressureHumidity
26-Jun-2024 00:00Clear Sky35°C9 mph, SE0%10000m1013hPa52%
26-Jun-2024 03:00Few Clouds32°C7 mph, S16%10000m1013hPa58%
26-Jun-2024 06:00Few Clouds29°C4 mph, S15%10000m1012hPa67%
26-Jun-2024 09:00Clear Sky25°C4 mph, SW0%10000m1012hPa85%
26-Jun-2024 12:00Clear Sky27°C4 mph, SW1%10000m1013hPa75%
26-Jun-2024 15:00Few Clouds35°C4 mph, SW17%10000m1012hPa38%
26-Jun-2024 18:00Few Clouds39°C4 mph, W14%10000m1010hPa26%
26-Jun-2024 21:00Broken Clouds36°C7 mph, SE65%10000m1008hPa36%
27-Jun-2024 00:00Broken Clouds29°C7 mph, S63%10000m1009hPa60%
27-Jun-2024 03:00Clear Sky28°C4 mph, SW9%10000m1010hPa70%
27-Jun-2024 06:00Clear Sky27°C7 mph, SW2%10000m1010hPa68%
27-Jun-2024 09:00Clear Sky24°C4 mph, SW6%10000m1009hPa76%
27-Jun-2024 12:00Scattered Clouds25°C4 mph, W29%10000m1010hPa75%
27-Jun-2024 15:00Overcast Clouds33°C7 mph, W100%10000m1010hPa46%
27-Jun-2024 18:00Overcast Clouds37°C7 mph, W99%10000m1009hPa34%
27-Jun-2024 21:00Overcast Clouds31°C7 mph, W99%10000m1009hPa50%
28-Jun-2024 00:00Overcast Clouds31°C0 mph, SW100%10000m1009hPa49%
28-Jun-2024 03:00Light Rain26°C4 mph, SW91%10000m1011hPa78%
28-Jun-2024 06:00Light Rain23°C2 mph, W58%10000m1012hPa92%
28-Jun-2024 09:00Light Rain22°C4 mph, W43%10000m1011hPa94%
28-Jun-2024 12:00Scattered Clouds24°C2 mph, SW41%10000m1014hPa88%
28-Jun-2024 15:00Broken Clouds30°C4 mph, SW81%10000m1015hPa59%
28-Jun-2024 18:00Broken Clouds38°C4 mph, SE58%10000m1013hPa33%
28-Jun-2024 21:00Light Rain30°C7 mph, SE96%10000m1013hPa59%
29-Jun-2024 00:00Light Rain27°C4 mph, SE92%10000m1014hPa75%
29-Jun-2024 03:00Light Rain26°C2 mph, S90%10000m1016hPa81%
29-Jun-2024 06:00Broken Clouds24°C2 mph, SE84%10000m1016hPa91%
29-Jun-2024 09:00Broken Clouds23°C2 mph, SW65%10000m1016hPa93%
29-Jun-2024 12:00Scattered Clouds26°C2 mph, NW35%10000m1018hPa77%
29-Jun-2024 15:00Broken Clouds34°C2 mph, W64%10000m1018hPa45%
29-Jun-2024 18:00Light Rain37°C0 mph, S75%10000m1017hPa38%
29-Jun-2024 21:00Overcast Clouds31°C2 mph, SE100%10000m1017hPa58%
30-Jun-2024 00:00Overcast Clouds30°C7 mph, SE100%10000m1017hPa63%
30-Jun-2024 03:00Light Rain25°C4 mph, SE71%10000m1018hPa90%
30-Jun-2024 06:00Scattered Clouds24°C2 mph, SE41%10000m1018hPa94%
30-Jun-2024 09:00Broken Clouds24°C2 mph, S55%10000m1018hPa95%
30-Jun-2024 12:00Scattered Clouds26°C2 mph, S44%10000m1018hPa82%
30-Jun-2024 15:00Overcast Clouds33°C2 mph, S100%10000m1018hPa51%
30-Jun-2024 18:00Overcast Clouds39°C2 mph, SE99%10000m1016hPa33%
30-Jun-2024 21:00Overcast Clouds32°C7 mph, SE97%10000m1015hPa51%